createdAt,value
2022-12-04T00:01:57.685Z,92.61
2022-12-04T00:04:24.073Z,92.80
2022-12-04T00:06:54.102Z,91.97
2022-12-04T00:09:24.745Z,93.17
2022-12-04T00:11:51.493Z,93.64
2022-12-04T00:14:17.803Z,93.64
2022-12-04T00:16:44.532Z,94.36
2022-12-04T00:19:11.326Z,94.48
2022-12-04T00:21:37.777Z,94.13
2022-12-04T00:24:04.537Z,93.99
2022-12-04T00:26:31.580Z,94.10
2022-12-04T00:28:57.933Z,93.27
2022-12-04T00:31:27.200Z,92.90
2022-12-04T00:33:54.055Z,93.05
2022-12-04T00:36:23.157Z,93.87
2022-12-04T00:38:50.136Z,93.59
2022-12-04T00:41:18.985Z,92.78
2022-12-04T00:43:45.883Z,92.67
2022-12-04T00:46:12.737Z,93.66
2022-12-04T00:48:39.457Z,92.63
2022-12-04T00:51:11.103Z,92.92
2022-12-04T00:53:38.009Z,93.71
2022-12-04T00:56:10.325Z,93.48
2022-12-04T00:58:37.198Z,92.95
2022-12-04T01:01:09.940Z,92.84
2022-12-04T01:03:36.997Z,92.76
2022-12-04T01:06:04.541Z,93.25
2022-12-04T01:08:31.471Z,92.93
2022-12-04T01:10:58.423Z,93.97
2022-12-04T01:13:25.606Z,93.63
2022-12-04T01:15:52.019Z,93.86
2022-12-04T01:18:18.869Z,94.33
2022-12-04T01:20:50.247Z,93.20
2022-12-04T01:23:17.636Z,93.21
2022-12-04T01:25:52.559Z,93.18
2022-12-04T01:28:18.968Z,93.30
2022-12-04T01:30:45.590Z,93.44
2022-12-04T01:33:12.368Z,93.81
2022-12-04T01:35:38.764Z,94.19
2022-12-04T01:38:05.096Z,93.76
2022-12-04T01:40:31.984Z,93.81
2022-12-04T01:42:59.698Z,94.00
2022-12-04T01:45:42.986Z,93.47
2022-12-04T01:48:32.318Z,93.40
2022-12-04T01:51:13.719Z,93.63
2022-12-04T01:53:44.390Z,93.42
2022-12-04T01:56:11.119Z,94.19
2022-12-04T01:58:42.966Z,93.29
2022-12-04T02:01:10.491Z,93.65
2022-12-04T02:03:38.738Z,93.74
2022-12-04T02:06:06.772Z,94.03
2022-12-04T02:08:34.711Z,93.63
2022-12-04T02:11:07.162Z,93.84
2022-12-04T02:13:49.395Z,93.97
2022-12-04T02:16:45.378Z,94.34
2022-12-04T02:19:21.727Z,94.15
2022-12-04T02:21:52.964Z,93.62
2022-12-04T02:24:32.229Z,92.71
2022-12-04T02:27:06.118Z,93.81
2022-12-04T02:29:59.007Z,93.53
2022-12-04T02:33:04.222Z,93.44
2022-12-04T02:35:36.325Z,93.19
2022-12-04T02:38:14.216Z,93.64
2022-12-04T02:41:01.613Z,93.71
2022-12-04T02:43:39.352Z,93.81
2022-12-04T02:46:11.938Z,94.59
2022-12-04T02:48:41.564Z,93.61
2022-12-04T02:51:11.596Z,93.68
2022-12-04T02:53:45.115Z,93.46
2022-12-04T02:56:16.686Z,93.59
2022-12-04T02:58:49.866Z,94.29
2022-12-04T03:01:21.864Z,94.13
2022-12-04T03:03:55.524Z,93.73
2022-12-04T03:06:25.472Z,93.81
2022-12-04T03:09:03.167Z,93.62
2022-12-04T03:11:31.849Z,93.86
2022-12-04T03:14:08.478Z,93.94
2022-12-04T03:16:41.040Z,92.99
2022-12-04T03:19:14.027Z,93.93
2022-12-04T03:21:46.627Z,94.08
2022-12-04T03:24:19.256Z,93.81
2022-12-04T03:26:57.178Z,93.22
2022-12-04T03:29:30.868Z,94.03
2022-12-04T03:32:22.210Z,93.51
2022-12-04T03:34:58.826Z,94.68
2022-12-04T03:37:41.910Z,94.52
2022-12-04T03:40:22.226Z,95.11
2022-12-04T03:42:56.552Z,95.56
2022-12-04T03:45:40.064Z,94.45
2022-12-04T03:48:21.225Z,94.58
2022-12-04T03:50:59.103Z,94.87
2022-12-04T03:53:35.382Z,95.15
2022-12-04T03:56:15.790Z,95.09
2022-12-04T03:58:49.570Z,94.28
2022-12-04T04:01:20.840Z,94.03
2022-12-04T04:03:51.797Z,94.05
2022-12-04T04:06:28.321Z,94.43
2022-12-04T04:09:00.472Z,93.95
2022-12-04T04:11:33.312Z,94.12
2022-12-04T04:14:25.882Z,93.75
2022-12-04T04:17:16.599Z,94.05
2022-12-04T04:20:06.718Z,94.55
2022-12-04T04:22:56.230Z,94.47
2022-12-04T04:25:25.972Z,94.33
2022-12-04T04:27:54.056Z,94.41
2022-12-04T04:30:21.306Z,94.42
2022-12-04T04:33:08.495Z,94.56
2022-12-04T04:36:00.865Z,94.61
2022-12-04T04:38:45.759Z,94.68
2022-12-04T04:41:24.149Z,94.94
2022-12-04T04:44:15.353Z,94.68
2022-12-04T04:46:52.311Z,95.44
2022-12-04T04:49:23.364Z,94.99
2022-12-04T04:51:50.039Z,95.53
2022-12-04T04:54:17.738Z,95.58
2022-12-04T04:56:45.870Z,95.17
2022-12-04T04:59:12.730Z,95.25
2022-12-04T05:01:41.786Z,95.04
2022-12-04T05:04:08.217Z,94.01
2022-12-04T05:06:34.597Z,94.75
2022-12-04T05:09:01.531Z,94.49
2022-12-04T05:11:27.858Z,94.35
2022-12-04T05:13:54.213Z,94.53
2022-12-04T05:16:20.942Z,95.74
2022-12-04T05:19:05.805Z,95.44
2022-12-04T05:21:33.715Z,95.08
2022-12-04T05:24:00.535Z,94.80
2022-12-04T05:26:26.874Z,95.12
2022-12-04T05:28:53.489Z,95.38
2022-12-04T05:31:20.559Z,95.03
2022-12-04T05:33:46.979Z,93.94
2022-12-04T05:36:13.374Z,94.54
2022-12-04T05:38:40.096Z,94.67
2022-12-04T05:41:07.176Z,94.80
2022-12-04T05:43:34.083Z,94.94
2022-12-04T05:46:02.762Z,94.97
2022-12-04T05:48:29.176Z,96.20
2022-12-04T05:50:55.930Z,96.29
2022-12-04T05:53:22.305Z,96.93
2022-12-04T05:55:59.652Z,96.44
2022-12-04T05:58:26.434Z,95.90
2022-12-04T06:00:53.013Z,96.83
2022-12-04T06:03:19.859Z,96.53
2022-12-04T06:05:46.523Z,95.60
2022-12-04T06:08:13.198Z,96.36
2022-12-04T06:10:40.150Z,96.79
2022-12-04T06:13:07.027Z,96.25
2022-12-04T06:15:38.318Z,96.08
2022-12-04T06:18:04.895Z,96.01
2022-12-04T06:20:31.597Z,96.21
2022-12-04T06:22:57.973Z,95.86
2022-12-04T06:25:24.659Z,96.11
2022-12-04T06:27:51.962Z,96.85
2022-12-04T06:30:18.321Z,97.51
2022-12-04T06:32:44.996Z,97.18
2022-12-04T06:35:11.713Z,97.95
2022-12-04T06:37:38.479Z,97.97
2022-12-04T06:40:05.636Z,97.33
2022-12-04T06:42:31.951Z,97.65
2022-12-04T06:44:58.915Z,96.50
2022-12-04T06:47:25.247Z,97.79
2022-12-04T06:49:51.679Z,96.84
2022-12-04T06:52:18.803Z,96.81
2022-12-04T06:54:45.677Z,96.93
2022-12-04T06:57:11.986Z,96.04
2022-12-04T06:59:38.643Z,94.84
2022-12-04T07:02:05.297Z,94.90
2022-12-04T07:04:31.659Z,94.84
2022-12-04T07:06:57.970Z,95.90
2022-12-04T07:09:24.671Z,95.78
2022-12-04T07:11:51.025Z,95.23
2022-12-04T07:14:17.775Z,94.64
2022-12-04T07:16:44.238Z,95.07
2022-12-04T07:19:13.569Z,95.25
2022-12-04T07:21:40.869Z,95.36
2022-12-04T07:24:07.333Z,94.60
2022-12-04T07:26:34.095Z,95.11
2022-12-04T07:29:00.477Z,95.09
2022-12-04T07:31:28.908Z,94.94
2022-12-04T07:33:56.065Z,94.49
2022-12-04T07:36:24.176Z,95.38
2022-12-04T07:38:51.277Z,95.89
2022-12-04T07:41:19.561Z,95.52
2022-12-04T07:43:46.230Z,96.09
2022-12-04T07:46:18.210Z,96.43
2022-12-04T07:48:45.116Z,96.49
2022-12-04T07:51:17.274Z,96.61
2022-12-04T07:53:44.456Z,96.19
2022-12-04T07:56:12.712Z,96.25
2022-12-04T07:58:39.898Z,95.08
2022-12-04T08:01:16.863Z,94.73
2022-12-04T08:03:48.132Z,95.24
2022-12-04T08:06:17.696Z,94.86
2022-12-04T08:08:44.070Z,94.04
2022-12-04T08:11:13.624Z,94.20
2022-12-04T08:13:40.395Z,94.46
2022-12-04T08:16:08.763Z,95.46
2022-12-04T08:18:35.367Z,95.45
2022-12-04T08:21:11.665Z,95.06
2022-12-04T08:23:39.434Z,95.66
2022-12-04T08:26:06.812Z,95.05
2022-12-04T08:28:34.269Z,94.83
2022-12-04T08:31:10.092Z,95.76
2022-12-04T08:33:37.054Z,95.17
2022-12-04T08:36:07.598Z,95.06
2022-12-04T08:38:34.078Z,94.54
2022-12-04T08:41:02.350Z,94.44
2022-12-04T08:43:29.537Z,92.90
2022-12-04T08:46:02.030Z,93.96
2022-12-04T08:48:29.327Z,94.23
2022-12-04T08:50:55.928Z,93.54
2022-12-04T08:53:22.489Z,93.96
2022-12-04T08:55:49.281Z,93.87
2022-12-04T08:58:15.670Z,94.31
2022-12-04T09:00:42.489Z,94.83
2022-12-04T09:03:15.802Z,95.82
2022-12-04T09:05:42.846Z,95.23
2022-12-04T09:08:09.295Z,95.96
2022-12-04T09:10:36.995Z,96.02
2022-12-04T09:13:03.817Z,96.62
2022-12-04T09:15:30.387Z,96.31
2022-12-04T09:17:57.124Z,96.53
2022-12-04T09:20:23.733Z,96.85
2022-12-04T09:23:03.416Z,96.82
2022-12-04T09:25:31.664Z,95.40
2022-12-04T09:27:58.897Z,94.37
2022-12-04T09:30:25.519Z,94.35
2022-12-04T09:32:52.214Z,95.04
2022-12-04T09:35:19.333Z,95.26
2022-12-04T09:37:45.659Z,96.24
2022-12-04T09:40:27.527Z,95.92
2022-12-04T09:43:30.213Z,94.93
2022-12-04T09:46:02.430Z,96.06
2022-12-04T09:48:35.803Z,96.11
2022-12-04T09:51:06.266Z,96.34
2022-12-04T09:54:10.735Z,95.70
2022-12-04T09:56:37.572Z,95.97
2022-12-04T09:59:25.919Z,95.76
2022-12-04T10:02:01.303Z,94.74
2022-12-04T10:04:27.954Z,94.52
2022-12-04T10:07:19.701Z,94.57
2022-12-04T10:09:55.875Z,95.42
2022-12-04T10:12:31.869Z,96.23
2022-12-04T10:15:04.577Z,97.02
2022-12-04T10:17:49.625Z,95.97
2022-12-04T10:20:28.090Z,96.10
2022-12-04T10:23:18.262Z,94.36
2022-12-04T10:25:44.573Z,95.51
2022-12-04T10:28:10.831Z,94.88
2022-12-04T10:30:41.787Z,96.47
2022-12-04T10:33:20.125Z,97.26
2022-12-04T10:35:54.771Z,97.27
2022-12-04T10:38:33.360Z,95.55
2022-12-04T10:41:15.022Z,95.15
2022-12-04T10:43:41.655Z,94.64
2022-12-04T10:46:14.497Z,93.44
2022-12-04T10:48:43.168Z,92.76
2022-12-04T10:51:21.667Z,93.33
2022-12-04T10:53:49.413Z,93.56
2022-12-04T10:56:18.061Z,92.79
2022-12-04T10:58:56.574Z,93.06
2022-12-04T11:01:23.825Z,92.81
2022-12-04T11:04:07.985Z,93.01
2022-12-04T11:06:35.611Z,93.98
2022-12-04T11:09:03.588Z,93.24
2022-12-04T11:11:33.603Z,94.15
2022-12-04T11:14:22.524Z,95.11
2022-12-04T11:17:00.469Z,94.50
2022-12-04T11:19:29.474Z,94.39
2022-12-04T11:22:05.826Z,93.41
2022-12-04T11:24:37.733Z,93.48
2022-12-04T11:27:07.253Z,93.98
2022-12-04T11:29:40.806Z,94.82
2022-12-04T11:32:16.950Z,95.00
2022-12-04T11:34:45.562Z,94.40
2022-12-04T11:37:26.258Z,95.22
2022-12-04T11:39:55.246Z,95.08
2022-12-04T11:42:30.143Z,94.52
2022-12-04T11:45:02.828Z,94.18
2022-12-04T11:47:32.145Z,92.82
2022-12-04T11:50:03.670Z,94.05
2022-12-04T11:52:43.765Z,94.04
2022-12-04T11:55:28.891Z,94.46
2022-12-04T11:58:20.681Z,94.58
2022-12-04T12:01:13.300Z,94.04
2022-12-04T12:03:52.414Z,94.00
2022-12-04T12:06:40.031Z,94.71
2022-12-04T12:09:06.647Z,96.30
2022-12-04T12:11:40.097Z,95.44
2022-12-04T12:14:41.413Z,94.97
2022-12-04T12:17:25.544Z,94.36
2022-12-04T12:20:01.596Z,93.15
2022-12-04T12:22:52.913Z,92.43
2022-12-04T12:25:33.490Z,93.67
2022-12-04T12:28:24.872Z,94.28
2022-12-04T12:31:12.917Z,95.10
2022-12-04T12:34:01.872Z,96.19
2022-12-04T12:36:34.426Z,95.83
2022-12-04T12:39:12.584Z,95.00
2022-12-04T12:41:46.313Z,95.13
2022-12-04T12:44:24.808Z,94.31
2022-12-04T12:47:02.930Z,94.75
2022-12-04T12:49:40.902Z,94.55
2022-12-04T12:52:28.663Z,95.40
2022-12-04T12:55:01.623Z,94.50
2022-12-04T12:57:43.407Z,94.26
2022-12-04T13:00:23.086Z,94.09
2022-12-04T13:03:15.303Z,93.02
2022-12-04T13:05:49.580Z,92.52
2022-12-04T13:08:26.311Z,93.45
2022-12-04T13:11:19.353Z,93.93
2022-12-04T13:13:49.168Z,93.72
2022-12-04T13:16:36.506Z,93.67
2022-12-04T13:19:23.049Z,93.39
2022-12-04T13:22:13.830Z,93.44
2022-12-04T13:24:55.344Z,93.36
2022-12-04T13:27:42.434Z,93.45
2022-12-04T13:30:31.841Z,94.44
2022-12-04T13:33:29.482Z,93.37
2022-12-04T13:36:16.802Z,93.54
2022-12-04T13:39:16.429Z,94.46
2022-12-04T13:41:42.910Z,94.33
2022-12-04T13:44:23.187Z,94.48
2022-12-04T13:46:56.147Z,93.61
2022-12-04T13:49:29.977Z,93.55
2022-12-04T13:51:58.156Z,93.98
2022-12-04T13:54:56.773Z,93.48
2022-12-04T13:57:25.674Z,93.79
2022-12-04T14:00:05.569Z,93.81
2022-12-04T14:02:38.271Z,94.13
2022-12-04T14:05:08.108Z,93.69
2022-12-04T14:07:37.644Z,93.62
2022-12-04T14:10:26.885Z,95.02
2022-12-04T14:13:21.195Z,95.25
2022-12-04T14:15:48.750Z,94.39
2022-12-04T14:18:29.110Z,94.89
2022-12-04T14:21:02.320Z,95.12
2022-12-04T14:23:42.852Z,93.99
2022-12-04T14:26:33.113Z,93.76
2022-12-04T14:29:27.868Z,93.99
2022-12-04T14:31:57.712Z,95.51
2022-12-04T14:34:29.608Z,96.27
2022-12-04T14:36:57.258Z,95.28
2022-12-04T14:39:36.989Z,95.13
2022-12-04T14:42:25.176Z,94.53
2022-12-04T14:44:58.441Z,94.77
2022-12-04T14:47:54.114Z,95.23
2022-12-04T14:50:39.294Z,93.70
2022-12-04T14:53:14.787Z,93.72
2022-12-04T14:55:52.764Z,93.65
2022-12-04T14:58:30.093Z,93.75
2022-12-04T15:01:04.699Z,93.88
2022-12-04T15:03:44.562Z,93.70
2022-12-04T15:06:22.464Z,93.40
2022-12-04T15:09:14.798Z,94.73
2022-12-04T15:12:16.919Z,95.40
2022-12-04T15:14:48.683Z,96.29
2022-12-04T15:17:17.407Z,96.38
2022-12-04T15:19:44.177Z,96.47
2022-12-04T15:22:21.632Z,97.37
2022-12-04T15:24:48.524Z,97.60
2022-12-04T15:27:17.133Z,96.92
2022-12-04T15:29:49.416Z,96.53
2022-12-04T15:32:19.121Z,95.70
2022-12-04T15:34:50.037Z,95.90
2022-12-04T15:37:21.806Z,94.86
2022-12-04T15:39:49.861Z,95.51
2022-12-04T15:42:27.155Z,95.51
2022-12-04T15:45:03.810Z,94.72
2022-12-04T15:47:49.491Z,94.97
2022-12-04T15:50:15.749Z,94.41
2022-12-04T15:53:01.001Z,94.79
2022-12-04T15:55:30.359Z,94.43
2022-12-04T15:58:05.055Z,93.86
2022-12-04T16:00:40.043Z,94.47
2022-12-04T16:03:23.504Z,94.65
2022-12-04T16:05:50.017Z,94.81
2022-12-04T16:08:29.441Z,94.94
2022-12-04T16:11:05.449Z,94.66
2022-12-04T16:13:38.630Z,95.26
2022-12-04T16:16:08.087Z,95.67
2022-12-04T16:18:34.840Z,94.97
2022-12-04T16:21:01.301Z,95.46
2022-12-04T16:23:27.654Z,95.29
2022-12-04T16:25:54.501Z,95.01
2022-12-04T16:28:20.965Z,95.18
2022-12-04T16:30:47.559Z,95.12
2022-12-04T16:33:16.017Z,95.75
2022-12-04T16:35:42.797Z,95.02
2022-12-04T16:38:15.446Z,96.04
2022-12-04T16:40:43.170Z,96.73
2022-12-04T16:43:13.018Z,96.58
2022-12-04T16:45:42.903Z,96.86
2022-12-04T16:48:09.214Z,96.64
2022-12-04T16:50:36.068Z,96.54
2022-12-04T16:53:02.921Z,96.94
2022-12-04T16:55:39.286Z,96.63
2022-12-04T16:58:08.254Z,96.97
2022-12-04T17:00:36.290Z,97.53
2022-12-04T17:03:04.235Z,96.77
2022-12-04T17:05:33.781Z,97.30
2022-12-04T17:08:01.348Z,97.79
2022-12-04T17:10:29.313Z,97.74
2022-12-04T17:12:57.026Z,97.27
2022-12-04T17:15:23.353Z,98.37
2022-12-04T17:17:50.196Z,98.74
2022-12-04T17:20:19.303Z,99.16
2022-12-04T17:22:45.729Z,99.14
2022-12-04T17:25:12.502Z,99.20
2022-12-04T17:27:39.385Z,99.53
2022-12-04T17:30:08.669Z,100.00
2022-12-04T17:32:35.203Z,100.00
2022-12-04T17:35:02.786Z,100.00
2022-12-04T17:37:29.244Z,100.00
2022-12-04T17:39:55.611Z,99.61
2022-12-04T17:42:22.200Z,98.94
2022-12-04T17:44:48.685Z,97.87
2022-12-04T17:47:15.171Z,97.92
2022-12-04T17:49:41.639Z,96.98
2022-12-04T17:52:07.966Z,96.39
2022-12-04T17:54:34.582Z,96.48
2022-12-04T17:57:01.686Z,96.76
2022-12-04T17:59:28.084Z,97.15
2022-12-04T18:01:54.410Z,96.70
2022-12-04T18:04:20.919Z,95.81
2022-12-04T18:06:47.330Z,96.02
2022-12-04T18:09:16.151Z,95.50
2022-12-04T18:11:45.936Z,96.17
2022-12-04T18:14:17.694Z,96.67
2022-12-04T18:16:47.666Z,96.64
2022-12-04T18:19:14.969Z,97.54
2022-12-04T18:21:41.818Z,98.17
2022-12-04T18:24:08.802Z,98.94
2022-12-04T18:26:37.683Z,99.11
2022-12-04T18:29:04.834Z,99.53
2022-12-04T18:31:32.540Z,99.95
2022-12-04T18:33:59.017Z,98.80
2022-12-04T18:36:27.905Z,99.75
2022-12-04T18:38:56.897Z,100.00
2022-12-04T18:41:24.070Z,99.88
2022-12-04T18:43:50.973Z,100.00
2022-12-04T18:46:18.791Z,100.00
2022-12-04T18:48:46.603Z,99.69
2022-12-04T18:51:18.084Z,99.63
2022-12-04T18:53:44.578Z,100.00
2022-12-04T18:56:10.957Z,100.00
2022-12-04T18:58:37.696Z,100.00
2022-12-04T19:01:08.777Z,100.00
2022-12-04T19:03:35.234Z,100.00
2022-12-04T19:06:02.933Z,100.00
2022-12-04T19:08:33.249Z,100.00
2022-12-04T19:11:11.999Z,100.00
2022-12-04T19:13:38.402Z,100.00
2022-12-04T19:16:05.109Z,100.00
2022-12-04T19:18:32.299Z,100.00
2022-12-04T19:20:58.651Z,99.81
2022-12-04T19:23:25.048Z,100.00
2022-12-04T19:25:59.275Z,100.00
2022-12-04T19:28:27.579Z,100.00
2022-12-04T19:30:55.291Z,100.00
2022-12-04T19:33:22.790Z,100.00
2022-12-04T19:36:03.694Z,100.00
2022-12-04T19:38:31.937Z,100.00
2022-12-04T19:41:10.406Z,100.00
2022-12-04T19:43:39.347Z,100.00
2022-12-04T19:46:07.236Z,100.00
2022-12-04T19:48:34.375Z,100.00
2022-12-04T19:51:20.867Z,100.00
2022-12-04T19:53:48.147Z,100.00
2022-12-04T19:56:17.598Z,100.00
2022-12-04T19:58:45.006Z,100.00
2022-12-04T20:01:14.649Z,100.00
2022-12-04T20:03:41.549Z,100.00
2022-12-04T20:06:14.105Z,100.00
2022-12-04T20:08:41.366Z,100.00
2022-12-04T20:11:11.760Z,100.00
2022-12-04T20:13:40.026Z,100.00
2022-12-04T20:16:09.473Z,100.00
2022-12-04T20:18:37.631Z,100.00
2022-12-04T20:21:10.834Z,100.00
2022-12-04T20:23:42.263Z,100.00
2022-12-04T20:26:12.020Z,100.00
2022-12-04T20:28:39.087Z,100.00
2022-12-04T20:31:21.104Z,100.00
2022-12-04T20:33:49.458Z,100.00
2022-12-04T20:36:18.569Z,100.00
2022-12-04T20:38:45.442Z,100.00
2022-12-04T20:41:15.658Z,100.00
2022-12-04T20:43:43.261Z,100.00
2022-12-04T20:46:15.488Z,100.00
2022-12-04T20:48:48.063Z,99.72
2022-12-04T20:51:17.718Z,99.73
2022-12-04T20:53:45.659Z,100.00
2022-12-04T20:56:12.683Z,99.74
2022-12-04T20:58:40.083Z,100.00
2022-12-04T21:01:15.774Z,99.81
2022-12-04T21:03:43.062Z,99.19
2022-12-04T21:06:21.266Z,100.00
2022-12-04T21:08:56.672Z,100.00
2022-12-04T21:11:45.056Z,100.00
2022-12-04T21:14:33.457Z,100.00
2022-12-04T21:17:01.057Z,100.00
2022-12-04T21:19:27.465Z,100.00
2022-12-04T21:21:53.983Z,100.00
2022-12-04T21:24:22.797Z,100.00
2022-12-04T21:26:49.149Z,100.00
2022-12-04T21:29:16.258Z,100.00
2022-12-04T21:31:43.169Z,99.15
2022-12-04T21:34:11.985Z,98.69
2022-12-04T21:36:38.422Z,97.75
2022-12-04T21:39:05.370Z,98.50
2022-12-04T21:41:50.726Z,98.69
2022-12-04T21:44:18.204Z,98.47
2022-12-04T21:46:45.443Z,98.54
2022-12-04T21:49:14.022Z,98.83
2022-12-04T21:51:56.743Z,98.90
2022-12-04T21:54:24.302Z,98.57
2022-12-04T21:56:50.621Z,98.56
2022-12-04T21:59:17.022Z,98.37
2022-12-04T22:01:43.950Z,98.28
2022-12-04T22:04:10.396Z,98.74
2022-12-04T22:06:38.523Z,99.21
2022-12-04T22:09:10.847Z,99.03
2022-12-04T22:11:38.828Z,98.51
2022-12-04T22:14:05.190Z,98.31
2022-12-04T22:16:34.639Z,98.33
2022-12-04T22:19:04.690Z,99.13
2022-12-04T22:21:31.232Z,98.03
2022-12-04T22:23:59.424Z,98.34
2022-12-04T22:26:27.257Z,97.87
2022-12-04T22:28:54.393Z,97.66
2022-12-04T22:31:23.831Z,97.55
2022-12-04T22:33:53.128Z,98.05
2022-12-04T22:36:23.142Z,97.60
2022-12-04T22:41:36.124Z,97.45
2022-12-04T22:44:02.690Z,97.90
2022-12-04T22:46:29.280Z,97.43
2022-12-04T22:48:55.704Z,97.36
2022-12-04T22:51:22.672Z,97.20
2022-12-04T22:53:52.025Z,96.95
2022-12-04T22:56:28.224Z,94.83
2022-12-04T22:58:55.319Z,95.17
2022-12-04T23:01:26.971Z,96.65
2022-12-04T23:03:54.945Z,96.85
2022-12-04T23:06:23.395Z,95.87
2022-12-04T23:08:55.476Z,95.72
2022-12-04T23:11:23.162Z,95.81
2022-12-04T23:13:56.059Z,95.23
2022-12-04T23:16:24.009Z,96.38
2022-12-04T23:18:50.654Z,97.33
2022-12-04T23:21:18.457Z,97.92
2022-12-04T23:23:46.740Z,98.48
2022-12-04T23:26:15.762Z,97.54
2022-12-04T23:28:43.334Z,98.20
2022-12-04T23:31:11.382Z,98.18
2022-12-04T23:33:38.417Z,98.22
2022-12-04T23:36:07.442Z,98.53
2022-12-04T23:38:36.095Z,99.00
2022-12-04T23:41:10.496Z,97.84
2022-12-04T23:43:38.274Z,98.22
2022-12-04T23:46:10.687Z,97.81
2022-12-04T23:48:39.110Z,98.25
2022-12-04T23:51:06.111Z,97.49
2022-12-04T23:53:32.462Z,97.05
2022-12-04T23:56:02.941Z,97.78
2022-12-04T23:58:29.290Z,97.70
